sensor_id;sensor_type;location;lat;lon;timestamp;P1;durP1;ratioP1;P2;durP2;ratioP2
16837;SDS011;19510;54.486;9.046;2024-03-23T00:55:22;16.88;;;2.50;;
16837;SDS011;19510;54.486;9.046;2024-03-23T00:57:49;12.93;;;2.35;;
16837;SDS011;19510;54.486;9.046;2024-03-23T01:00:14;17.92;;;2.85;;
16837;SDS011;19510;54.486;9.046;2024-03-23T01:02:42;24.48;;;3.17;;
16837;SDS011;19510;54.486;9.046;2024-03-23T01:05:08;16.58;;;2.88;;
16837;SDS011;19510;54.486;9.046;2024-03-23T01:07:36;13.43;;;2.67;;
16837;SDS011;19510;54.486;9.046;2024-03-23T01:10:04;12.40;;;2.80;;
16837;SDS011;19510;54.486;9.046;2024-03-23T01:12:32;21.20;;;3.58;;
16837;SDS011;19510;54.486;9.046;2024-03-23T01:14:58;13.05;;;2.67;;
16837;SDS011;19510;54.486;9.046;2024-03-23T01:17:24;12.85;;;2.65;;
16837;SDS011;19510;54.486;9.046;2024-03-23T01:19:51;20.17;;;3.55;;
16837;SDS011;19510;54.486;9.046;2024-03-23T01:22:17;10.57;;;2.80;;
16837;SDS011;19510;54.486;9.046;2024-03-23T01:24:43;13.30;;;2.60;;
16837;SDS011;19510;54.486;9.046;2024-03-23T01:27:09;11.68;;;2.45;;
16837;SDS011;19510;54.486;9.046;2024-03-23T01:29:35;12.68;;;2.55;;
16837;SDS011;19510;54.486;9.046;2024-03-23T01:32:00;13.63;;;2.92;;
16837;SDS011;19510;54.486;9.046;2024-03-23T01:34:26;22.77;;;4.13;;
16837;SDS011;19510;54.486;9.046;2024-03-23T01:36:53;14.02;;;3.20;;
16837;SDS011;19510;54.486;9.046;2024-03-23T01:39:21;15.50;;;2.83;;
16837;SDS011;19510;54.486;9.046;2024-03-23T01:41:47;13.80;;;2.47;;
16837;SDS011;19510;54.486;9.046;2024-03-23T01:44:13;15.93;;;2.30;;
16837;SDS011;19510;54.486;9.046;2024-03-23T01:46:38;9.98;;;2.25;;
16837;SDS011;19510;54.486;9.046;2024-03-23T01:49:07;12.48;;;2.53;;
16837;SDS011;19510;54.486;9.046;2024-03-23T01:51:33;13.55;;;2.88;;
16837;SDS011;19510;54.486;9.046;2024-03-23T01:53:59;15.10;;;2.72;;
16837;SDS011;19510;54.486;9.046;2024-03-23T01:56:34;13.40;;;2.58;;
16837;SDS011;19510;54.486;9.046;2024-03-23T01:59:03;15.45;;;2.45;;
16837;SDS011;19510;54.486;9.046;2024-03-23T02:01:30;13.82;;;2.83;;
16837;SDS011;19510;54.486;9.046;2024-03-23T02:03:56;17.67;;;2.55;;
16837;SDS011;19510;54.486;9.046;2024-03-23T02:06:24;17.92;;;3.55;;
16837;SDS011;19510;54.486;9.046;2024-03-23T02:08:50;26.85;;;3.13;;
16837;SDS011;19510;54.486;9.046;2024-03-23T02:11:16;16.88;;;3.17;;
16837;SDS011;19510;54.486;9.046;2024-03-23T02:13:48;20.33;;;2.50;;
16837;SDS011;19510;54.486;9.046;2024-03-23T02:16:14;13.52;;;2.38;;
16837;SDS011;19510;54.486;9.046;2024-03-23T02:18:42;11.63;;;2.35;;
16837;SDS011;19510;54.486;9.046;2024-03-23T02:21:07;13.77;;;2.70;;
16837;SDS011;19510;54.486;9.046;2024-03-23T02:23:33;11.70;;;2.30;;
16837;SDS011;19510;54.486;9.046;2024-03-23T02:25:59;21.83;;;3.03;;
16837;SDS011;19510;54.486;9.046;2024-03-23T02:28:24;11.43;;;2.15;;
16837;SDS011;19510;54.486;9.046;2024-03-23T02:30:52;17.70;;;2.42;;
16837;SDS011;19510;54.486;9.046;2024-03-23T02:33:18;19.42;;;2.88;;
16837;SDS011;19510;54.486;9.046;2024-03-23T02:35:46;19.10;;;2.60;;
16837;SDS011;19510;54.486;9.046;2024-03-23T02:38:12;10.57;;;2.28;;
16837;SDS011;19510;54.486;9.046;2024-03-23T02:40:38;17.60;;;2.60;;
16837;SDS011;19510;54.486;9.046;2024-03-23T02:43:04;19.52;;;3.08;;
16837;SDS011;19510;54.486;9.046;2024-03-23T02:45:32;15.55;;;3.05;;
16837;SDS011;19510;54.486;9.046;2024-03-23T02:47:57;19.08;;;3.00;;
16837;SDS011;19510;54.486;9.046;2024-03-23T02:50:23;14.43;;;2.63;;
16837;SDS011;19510;54.486;9.046;2024-03-23T02:52:49;11.40;;;3.22;;
16837;SDS011;19510;54.486;9.046;2024-03-23T02:55:17;15.43;;;2.53;;
16837;SDS011;19510;54.486;9.046;2024-03-23T02:57:42;19.77;;;3.15;;
16837;SDS011;19510;54.486;9.046;2024-03-23T03:00:08;15.98;;;2.58;;
16837;SDS011;19510;54.486;9.046;2024-03-23T03:02:36;13.95;;;2.65;;
16837;SDS011;19510;54.486;9.046;2024-03-23T03:05:04;12.90;;;2.25;;
16837;SDS011;19510;54.486;9.046;2024-03-23T03:07:33;18.90;;;2.95;;
16837;SDS011;19510;54.486;9.046;2024-03-23T03:09:59;13.57;;;3.20;;
16837;SDS011;19510;54.486;9.046;2024-03-23T03:12:30;15.13;;;3.20;;
16837;SDS011;19510;54.486;9.046;2024-03-23T03:14:58;13.52;;;3.05;;
16837;SDS011;19510;54.486;9.046;2024-03-23T03:17:26;22.08;;;2.92;;
16837;SDS011;19510;54.486;9.046;2024-03-23T03:19:51;15.63;;;2.57;;
16837;SDS011;19510;54.486;9.046;2024-03-23T03:22:20;14.20;;;3.15;;
16837;SDS011;19510;54.486;9.046;2024-03-23T03:24:49;17.20;;;2.42;;
16837;SDS011;19510;54.486;9.046;2024-03-23T03:27:15;16.10;;;2.47;;
16837;SDS011;19510;54.486;9.046;2024-03-23T03:29:42;15.23;;;3.13;;
16837;SDS011;19510;54.486;9.046;2024-03-23T03:32:13;13.23;;;3.63;;
16837;SDS011;19510;54.486;9.046;2024-03-23T03:34:38;14.35;;;2.67;;
16837;SDS011;19510;54.486;9.046;2024-03-23T03:37:04;18.20;;;2.90;;
16837;SDS011;19510;54.486;9.046;2024-03-23T03:39:30;18.83;;;2.77;;
16837;SDS011;19510;54.486;9.046;2024-03-23T03:41:56;13.20;;;2.65;;
16837;SDS011;19510;54.486;9.046;2024-03-23T03:44:21;13.30;;;3.10;;
16837;SDS011;19510;54.486;9.046;2024-03-23T03:46:47;12.57;;;3.00;;
16837;SDS011;19510;54.486;9.046;2024-03-23T03:49:13;17.95;;;3.08;;
16837;SDS011;19510;54.486;9.046;2024-03-23T03:51:43;21.95;;;3.15;;
16837;SDS011;19510;54.486;9.046;2024-03-23T03:54:11;16.90;;;2.13;;
16837;SDS011;19510;54.486;9.046;2024-03-23T03:56:41;17.85;;;2.72;;
16837;SDS011;19510;54.486;9.046;2024-03-23T03:59:08;20.13;;;2.77;;
16837;SDS011;19510;54.486;9.046;2024-03-23T04:01:33;21.95;;;2.97;;
16837;SDS011;19510;54.486;9.046;2024-03-23T04:04:04;15.63;;;3.33;;
16837;SDS011;19510;54.486;9.046;2024-03-23T04:06:29;15.68;;;3.58;;
16837;SDS011;19510;54.486;9.046;2024-03-23T04:08:55;27.08;;;3.05;;
16837;SDS011;19510;54.486;9.046;2024-03-23T04:11:21;13.25;;;3.70;;
16837;SDS011;19510;54.486;9.046;2024-03-23T04:13:46;25.83;;;3.47;;
16837;SDS011;19510;54.486;9.046;2024-03-23T04:16:24;16.00;;;2.83;;
16837;SDS011;19510;54.486;9.046;2024-03-23T04:18:57;15.65;;;2.92;;
16837;SDS011;19510;54.486;9.046;2024-03-23T04:21:23;16.70;;;2.42;;
16837;SDS011;19510;54.486;9.046;2024-03-23T04:23:48;11.40;;;2.47;;
16837;SDS011;19510;54.486;9.046;2024-03-23T04:26:14;18.67;;;2.42;;
16837;SDS011;19510;54.486;9.046;2024-03-23T04:28:41;12.37;;;3.33;;
16837;SDS011;19510;54.486;9.046;2024-03-23T04:31:07;19.80;;;2.90;;
16837;SDS011;19510;54.486;9.046;2024-03-23T04:33:32;15.10;;;2.95;;
16837;SDS011;19510;54.486;9.046;2024-03-23T04:35:58;13.60;;;2.72;;
16837;SDS011;19510;54.486;9.046;2024-03-23T04:38:24;16.00;;;2.70;;
16837;SDS011;19510;54.486;9.046;2024-03-23T04:40:56;19.33;;;2.42;;
16837;SDS011;19510;54.486;9.046;2024-03-23T04:43:22;19.63;;;3.47;;
16837;SDS011;19510;54.486;9.046;2024-03-23T04:45:50;16.80;;;2.80;;
16837;SDS011;19510;54.486;9.046;2024-03-23T04:48:21;19.63;;;2.92;;
16837;SDS011;19510;54.486;9.046;2024-03-23T04:50:48;12.10;;;2.27;;
16837;SDS011;19510;54.486;9.046;2024-03-23T04:53:14;14.20;;;3.67;;
16837;SDS011;19510;54.486;9.046;2024-03-23T04:55:45;15.33;;;3.87;;
16837;SDS011;19510;54.486;9.046;2024-03-23T04:58:12;25.60;;;3.20;;
16837;SDS011;19510;54.486;9.046;2024-03-23T05:00:40;21.33;;;3.53;;
16837;SDS011;19510;54.486;9.046;2024-03-23T05:03:08;15.90;;;2.83;;
16837;SDS011;19510;54.486;9.046;2024-03-23T05:05:36;12.80;;;3.17;;
16837;SDS011;19510;54.486;9.046;2024-03-23T05:08:04;14.50;;;2.70;;
16837;SDS011;19510;54.486;9.046;2024-03-23T05:10:30;15.60;;;3.10;;
16837;SDS011;19510;54.486;9.046;2024-03-23T05:12:59;14.63;;;2.40;;
16837;SDS011;19510;54.486;9.046;2024-03-23T05:15:26;14.63;;;3.00;;
16837;SDS011;19510;54.486;9.046;2024-03-23T05:17:55;15.23;;;3.00;;
16837;SDS011;19510;54.486;9.046;2024-03-23T05:20:20;22.00;;;3.10;;
16837;SDS011;19510;54.486;9.046;2024-03-23T05:22:46;19.80;;;3.20;;
16837;SDS011;19510;54.486;9.046;2024-03-23T05:25:12;14.70;;;3.67;;
16837;SDS011;19510;54.486;9.046;2024-03-23T05:27:38;16.27;;;3.30;;
16837;SDS011;19510;54.486;9.046;2024-03-23T05:30:04;19.63;;;3.37;;
16837;SDS011;19510;54.486;9.046;2024-03-23T05:32:31;16.87;;;2.93;;
16837;SDS011;19510;54.486;9.046;2024-03-23T05:34:57;11.97;;;3.00;;
16837;SDS011;19510;54.486;9.046;2024-03-23T05:37:23;18.23;;;3.00;;
16837;SDS011;19510;54.486;9.046;2024-03-23T05:39:49;18.73;;;3.10;;
16837;SDS011;19510;54.486;9.046;2024-03-23T05:42:15;17.57;;;3.17;;
16837;SDS011;19510;54.486;9.046;2024-03-23T05:44:43;20.73;;;3.60;;
16837;SDS011;19510;54.486;9.046;2024-03-23T05:47:12;22.20;;;3.37;;
16837;SDS011;19510;54.486;9.046;2024-03-23T05:49:45;20.43;;;2.90;;
16837;SDS011;19510;54.486;9.046;2024-03-23T05:52:11;20.30;;;2.83;;
16837;SDS011;19510;54.486;9.046;2024-03-23T05:54:37;15.03;;;3.27;;
16837;SDS011;19510;54.486;9.046;2024-03-23T05:57:03;20.13;;;2.63;;
16837;SDS011;19510;54.486;9.046;2024-03-23T05:59:29;16.90;;;3.47;;
16837;SDS011;19510;54.486;9.046;2024-03-23T06:01:58;15.37;;;2.60;;
16837;SDS011;19510;54.486;9.046;2024-03-23T06:04:25;15.23;;;3.37;;
16837;SDS011;19510;54.486;9.046;2024-03-23T06:06:53;20.10;;;3.63;;
16837;SDS011;19510;54.486;9.046;2024-03-23T06:09:22;14.43;;;2.87;;
16837;SDS011;19510;54.486;9.046;2024-03-23T06:11:48;15.73;;;2.97;;
16837;SDS011;19510;54.486;9.046;2024-03-23T06:14:14;20.43;;;3.97;;
16837;SDS011;19510;54.486;9.046;2024-03-23T06:16:40;15.30;;;3.10;;
16837;SDS011;19510;54.486;9.046;2024-03-23T06:19:05;16.50;;;4.17;;
16837;SDS011;19510;54.486;9.046;2024-03-23T06:21:32;24.03;;;3.77;;
16837;SDS011;19510;54.486;9.046;2024-03-23T06:23:58;16.43;;;2.50;;
16837;SDS011;19510;54.486;9.046;2024-03-23T06:26:24;21.95;;;3.22;;
16837;SDS011;19510;54.486;9.046;2024-03-23T06:28:52;23.17;;;3.50;;
16837;SDS011;19510;54.486;9.046;2024-03-23T06:31:20;19.10;;;3.13;;
16837;SDS011;19510;54.486;9.046;2024-03-23T06:33:48;23.00;;;3.60;;
16837;SDS011;19510;54.486;9.046;2024-03-23T06:36:14;16.07;;;2.70;;
16837;SDS011;19510;54.486;9.046;2024-03-23T06:38:40;17.07;;;3.47;;
16837;SDS011;19510;54.486;9.046;2024-03-23T06:41:08;11.67;;;2.80;;
16837;SDS011;19510;54.486;9.046;2024-03-23T06:43:36;25.40;;;3.57;;
16837;SDS011;19510;54.486;9.046;2024-03-23T06:46:02;16.90;;;2.93;;
16837;SDS011;19510;54.486;9.046;2024-03-23T06:48:29;20.17;;;3.50;;
16837;SDS011;19510;54.486;9.046;2024-03-23T06:51:00;17.20;;;3.50;;
16837;SDS011;19510;54.486;9.046;2024-03-23T06:53:25;18.73;;;2.50;;
16837;SDS011;19510;54.486;9.046;2024-03-23T06:55:54;22.97;;;3.27;;
16837;SDS011;19510;54.486;9.046;2024-03-23T06:58:21;17.63;;;3.08;;
16837;SDS011;19510;54.486;9.046;2024-03-23T07:00:50;16.73;;;3.20;;
16837;SDS011;19510;54.486;9.046;2024-03-23T07:03:19;19.40;;;3.10;;
16837;SDS011;19510;54.486;9.046;2024-03-23T07:05:46;14.27;;;2.40;;
16837;SDS011;19510;54.486;9.046;2024-03-23T07:08:12;14.85;;;4.57;;
16837;SDS011;19510;54.486;9.046;2024-03-23T07:10:41;20.10;;;5.82;;
16837;SDS011;19510;54.486;9.046;2024-03-23T07:13:07;9.75;;;2.58;;
16837;SDS011;19510;54.486;9.046;2024-03-23T07:15:33;9.85;;;2.08;;
16837;SDS011;19510;54.486;9.046;2024-03-23T07:18:03;11.45;;;3.03;;
16837;SDS011;19510;54.486;9.046;2024-03-23T07:20:29;9.73;;;2.20;;
16837;SDS011;19510;54.486;9.046;2024-03-23T07:22:57;11.88;;;2.60;;
16837;SDS011;19510;54.486;9.046;2024-03-23T07:25:25;13.85;;;2.85;;
16837;SDS011;19510;54.486;9.046;2024-03-23T07:27:53;22.65;;;2.83;;
16837;SDS011;19510;54.486;9.046;2024-03-23T07:30:18;13.52;;;2.63;;
16837;SDS011;19510;54.486;9.046;2024-03-23T07:32:44;14.50;;;4.07;;
16837;SDS011;19510;54.486;9.046;2024-03-23T07:35:10;11.70;;;1.77;;
16837;SDS011;19510;54.486;9.046;2024-03-23T07:37:38;7.72;;;1.67;;
16837;SDS011;19510;54.486;9.046;2024-03-23T07:40:04;5.78;;;1.40;;
16837;SDS011;19510;54.486;9.046;2024-03-23T07:42:30;3.63;;;0.80;;
16837;SDS011;19510;54.486;9.046;2024-03-23T07:44:56;5.07;;;1.60;;
16837;SDS011;19510;54.486;9.046;2024-03-23T07:47:24;4.60;;;1.20;;
16837;SDS011;19510;54.486;9.046;2024-03-23T07:49:49;8.73;;;1.73;;
16837;SDS011;19510;54.486;9.046;2024-03-23T07:52:17;12.10;;;1.80;;
16837;SDS011;19510;54.486;9.046;2024-03-23T07:54:43;11.05;;;1.73;;
16837;SDS011;19510;54.486;9.046;2024-03-23T07:57:09;5.30;;;2.10;;
16837;SDS011;19510;54.486;9.046;2024-03-23T07:59:34;7.53;;;2.40;;
16837;SDS011;19510;54.486;9.046;2024-03-23T08:02:00;10.80;;;1.93;;
16837;SDS011;19510;54.486;9.046;2024-03-23T08:04:27;9.98;;;1.90;;
16837;SDS011;19510;54.486;9.046;2024-03-23T08:06:55;6.40;;;2.05;;
16837;SDS011;19510;54.486;9.046;2024-03-23T08:09:21;8.43;;;3.03;;
16837;SDS011;19510;54.486;9.046;2024-03-23T08:11:47;6.85;;;2.08;;
16837;SDS011;19510;54.486;9.046;2024-03-23T08:14:13;12.32;;;3.33;;
16837;SDS011;19510;54.486;9.046;2024-03-23T08:16:39;9.55;;;2.90;;
16837;SDS011;19510;54.486;9.046;2024-03-23T08:19:05;12.00;;;3.10;;
16837;SDS011;19510;54.486;9.046;2024-03-23T08:21:36;10.13;;;1.67;;
16837;SDS011;19510;54.486;9.046;2024-03-23T08:24:04;17.75;;;2.28;;
16837;SDS011;19510;54.486;9.046;2024-03-23T08:26:30;13.98;;;1.90;;
16837;SDS011;19510;54.486;9.046;2024-03-23T08:28:56;19.17;;;2.63;;
16837;SDS011;19510;54.486;9.046;2024-03-23T08:31:22;12.82;;;1.95;;
16837;SDS011;19510;54.486;9.046;2024-03-23T08:33:48;15.68;;;2.60;;
16837;SDS011;19510;54.486;9.046;2024-03-23T08:36:19;14.32;;;2.22;;
16837;SDS011;19510;54.486;9.046;2024-03-23T08:38:44;18.00;;;2.13;;
16837;SDS011;19510;54.486;9.046;2024-03-23T08:41:11;7.00;;;1.38;;
16837;SDS011;19510;54.486;9.046;2024-03-23T08:43:37;5.82;;;1.10;;
16837;SDS011;19510;54.486;9.046;2024-03-23T08:46:13;7.30;;;1.77;;
16837;SDS011;19510;54.486;9.046;2024-03-23T08:48:40;7.45;;;0.95;;
16837;SDS011;19510;54.486;9.046;2024-03-23T08:51:10;11.63;;;1.10;;
16837;SDS011;19510;54.486;9.046;2024-03-23T08:53:37;4.75;;;1.63;;
16837;SDS011;19510;54.486;9.046;2024-03-23T08:56:06;5.03;;;2.03;;
16837;SDS011;19510;54.486;9.046;2024-03-23T08:58:33;7.82;;;2.45;;
16837;SDS011;19510;54.486;9.046;2024-03-23T09:01:09;6.47;;;1.23;;
16837;SDS011;19510;54.486;9.046;2024-03-23T09:03:36;9.13;;;1.75;;
16837;SDS011;19510;54.486;9.046;2024-03-23T09:06:06;8.43;;;1.48;;
16837;SDS011;19510;54.486;9.046;2024-03-23T09:08:39;8.00;;;1.83;;
16837;SDS011;19510;54.486;9.046;2024-03-23T09:11:06;6.97;;;1.55;;
16837;SDS011;19510;54.486;9.046;2024-03-23T09:13:35;11.70;;;2.45;;
16837;SDS011;19510;54.486;9.046;2024-03-23T09:16:01;11.00;;;1.92;;
16837;SDS011;19510;54.486;9.046;2024-03-23T09:18:30;7.65;;;1.67;;
16837;SDS011;19510;54.486;9.046;2024-03-23T09:20:57;13.80;;;1.85;;
16837;SDS011;19510;54.486;9.046;2024-03-23T09:23:27;13.40;;;2.33;;
16837;SDS011;19510;54.486;9.046;2024-03-23T09:25:53;11.38;;;2.28;;
16837;SDS011;19510;54.486;9.046;2024-03-23T09:28:19;10.55;;;1.80;;
16837;SDS011;19510;54.486;9.046;2024-03-23T09:30:45;11.13;;;2.05;;
16837;SDS011;19510;54.486;9.046;2024-03-23T09:33:11;13.18;;;1.95;;
16837;SDS011;19510;54.486;9.046;2024-03-23T09:35:40;17.67;;;2.40;;
16837;SDS011;19510;54.486;9.046;2024-03-23T09:38:07;8.32;;;2.42;;
16837;SDS011;19510;54.486;9.046;2024-03-23T09:40:34;8.27;;;1.90;;
16837;SDS011;19510;54.486;9.046;2024-03-23T09:43:00;11.30;;;1.90;;
16837;SDS011;19510;54.486;9.046;2024-03-23T09:45:27;13.10;;;1.77;;
16837;SDS011;19510;54.486;9.046;2024-03-23T09:47:54;7.78;;;1.48;;
16837;SDS011;19510;54.486;9.046;2024-03-23T09:50:24;9.05;;;1.80;;
16837;SDS011;19510;54.486;9.046;2024-03-23T09:52:49;21.48;;;3.17;;
16837;SDS011;19510;54.486;9.046;2024-03-23T09:55:15;13.27;;;2.53;;
16837;SDS011;19510;54.486;9.046;2024-03-23T09:57:41;19.23;;;2.33;;
16837;SDS011;19510;54.486;9.046;2024-03-23T10:00:07;9.15;;;1.73;;
16837;SDS011;19510;54.486;9.046;2024-03-23T10:02:34;6.63;;;1.58;;
16837;SDS011;19510;54.486;9.046;2024-03-23T10:05:03;8.60;;;1.70;;
16837;SDS011;19510;54.486;9.046;2024-03-23T10:07:29;6.82;;;1.38;;
16837;SDS011;19510;54.486;9.046;2024-03-23T10:09:55;9.35;;;1.48;;
16837;SDS011;19510;54.486;9.046;2024-03-23T10:12:23;15.55;;;1.80;;
16837;SDS011;19510;54.486;9.046;2024-03-23T10:14:49;6.32;;;1.90;;
16837;SDS011;19510;54.486;9.046;2024-03-23T10:17:22;9.75;;;1.85;;
16837;SDS011;19510;54.486;9.046;2024-03-23T10:19:49;12.60;;;1.50;;
16837;SDS011;19510;54.486;9.046;2024-03-23T10:22:17;9.18;;;1.30;;
16837;SDS011;19510;54.486;9.046;2024-03-23T10:24:44;5.53;;;1.23;;
16837;SDS011;19510;54.486;9.046;2024-03-23T10:27:14;3.97;;;1.25;;
16837;SDS011;19510;54.486;9.046;2024-03-23T10:29:42;5.13;;;1.50;;
16837;SDS011;19510;54.486;9.046;2024-03-23T10:32:12;8.05;;;1.60;;
16837;SDS011;19510;54.486;9.046;2024-03-23T10:34:42;4.13;;;1.42;;
16837;SDS011;19510;54.486;9.046;2024-03-23T10:37:09;10.45;;;1.75;;
16837;SDS011;19510;54.486;9.046;2024-03-23T10:39:36;9.20;;;1.63;;
16837;SDS011;19510;54.486;9.046;2024-03-23T10:42:06;10.45;;;1.75;;
16837;SDS011;19510;54.486;9.046;2024-03-23T10:44:36;10.98;;;2.67;;
16837;SDS011;19510;54.486;9.046;2024-03-23T10:47:02;8.75;;;2.00;;
16837;SDS011;19510;54.486;9.046;2024-03-23T10:52:01;8.25;;;1.70;;
16837;SDS011;19510;54.486;9.046;2024-03-23T10:54:28;9.38;;;2.20;;
16837;SDS011;19510;54.486;9.046;2024-03-23T10:57:15;9.38;;;1.98;;
16837;SDS011;19510;54.486;9.046;2024-03-23T10:59:54;9.25;;;1.80;;
16837;SDS011;19510;54.486;9.046;2024-03-23T11:02:21;16.38;;;1.90;;
16837;SDS011;19510;54.486;9.046;2024-03-23T11:04:47;9.48;;;1.92;;
16837;SDS011;19510;54.486;9.046;2024-03-23T11:07:31;9.48;;;1.98;;
16837;SDS011;19510;54.486;9.046;2024-03-23T11:09:58;8.93;;;2.42;;
16837;SDS011;19510;54.486;9.046;2024-03-23T11:12:28;15.35;;;1.80;;
16837;SDS011;19510;54.486;9.046;2024-03-23T11:15:02;13.52;;;2.30;;
16837;SDS011;19510;54.486;9.046;2024-03-23T11:17:32;11.30;;;1.90;;
16837;SDS011;19510;54.486;9.046;2024-03-23T11:20:01;9.40;;;2.03;;
16837;SDS011;19510;54.486;9.046;2024-03-23T11:25:15;11.98;;;1.52;;
16837;SDS011;19510;54.486;9.046;2024-03-23T11:27:43;6.50;;;1.65;;
16837;SDS011;19510;54.486;9.046;2024-03-23T11:30:12;8.82;;;1.63;;
16837;SDS011;19510;54.486;9.046;2024-03-23T11:32:47;9.25;;;1.80;;
16837;SDS011;19510;54.486;9.046;2024-03-23T11:38:11;10.07;;;1.85;;
16837;SDS011;19510;54.486;9.046;2024-03-23T11:40:44;9.50;;;1.70;;
16837;SDS011;19510;54.486;9.046;2024-03-23T11:43:11;16.17;;;2.13;;
16837;SDS011;19510;54.486;9.046;2024-03-23T11:45:48;8.82;;;1.70;;
16837;SDS011;19510;54.486;9.046;2024-03-23T11:48:19;5.68;;;1.17;;
16837;SDS011;19510;54.486;9.046;2024-03-23T11:50:56;1.52;;;0.70;;
16837;SDS011;19510;54.486;9.046;2024-03-23T11:53:23;3.90;;;0.75;;
16837;SDS011;19510;54.486;9.046;2024-03-23T11:55:55;3.60;;;1.02;;
16837;SDS011;19510;54.486;9.046;2024-03-23T11:58:26;8.63;;;1.35;;
16837;SDS011;19510;54.486;9.046;2024-03-23T12:00:56;7.53;;;1.58;;
16837;SDS011;19510;54.486;9.046;2024-03-23T12:03:23;9.75;;;1.52;;
16837;SDS011;19510;54.486;9.046;2024-03-23T12:05:56;4.35;;;1.40;;
16837;SDS011;19510;54.486;9.046;2024-03-23T12:08:30;3.90;;;1.50;;
16837;SDS011;19510;54.486;9.046;2024-03-23T12:11:13;10.02;;;2.20;;
16837;SDS011;19510;54.486;9.046;2024-03-23T12:13:43;7.40;;;1.65;;
16837;SDS011;19510;54.486;9.046;2024-03-23T12:18:43;13.38;;;1.58;;
16837;SDS011;19510;54.486;9.046;2024-03-23T12:21:09;10.52;;;1.88;;
16837;SDS011;19510;54.486;9.046;2024-03-23T12:23:36;7.78;;;1.58;;
16837;SDS011;19510;54.486;9.046;2024-03-23T12:26:04;11.18;;;1.80;;
16837;SDS011;19510;54.486;9.046;2024-03-23T12:28:29;6.88;;;1.60;;
16837;SDS011;19510;54.486;9.046;2024-03-23T12:30:55;6.45;;;1.75;;
16837;SDS011;19510;54.486;9.046;2024-03-23T12:33:21;3.70;;;1.30;;
16837;SDS011;19510;54.486;9.046;2024-03-23T12:35:49;9.90;;;1.90;;
16837;SDS011;19510;54.486;9.046;2024-03-23T12:38:15;6.70;;;1.25;;
16837;SDS011;19510;54.486;9.046;2024-03-23T12:40:42;9.25;;;2.17;;
16837;SDS011;19510;54.486;9.046;2024-03-23T12:43:12;8.70;;;1.80;;
16837;SDS011;19510;54.486;9.046;2024-03-23T12:45:41;8.35;;;1.95;;
16837;SDS011;19510;54.486;9.046;2024-03-23T12:48:11;5.35;;;1.52;;
16837;SDS011;19510;54.486;9.046;2024-03-23T12:50:36;5.65;;;1.40;;
16837;SDS011;19510;54.486;9.046;2024-03-23T12:53:04;12.68;;;1.52;;
16837;SDS011;19510;54.486;9.046;2024-03-23T12:55:30;9.15;;;1.67;;
16837;SDS011;19510;54.486;9.046;2024-03-23T12:57:55;10.55;;;2.20;;
16837;SDS011;19510;54.486;9.046;2024-03-23T13:00:21;11.80;;;2.53;;
16837;SDS011;19510;54.486;9.046;2024-03-23T13:02:47;12.02;;;1.95;;
16837;SDS011;19510;54.486;9.046;2024-03-23T13:05:13;18.23;;;3.05;;
16837;SDS011;19510;54.486;9.046;2024-03-23T13:07:38;6.57;;;1.58;;
16837;SDS011;19510;54.486;9.046;2024-03-23T13:10:07;9.10;;;2.13;;
16837;SDS011;19510;54.486;9.046;2024-03-23T13:12:34;6.57;;;1.98;;
16837;SDS011;19510;54.486;9.046;2024-03-23T13:15:00;7.13;;;1.73;;
16837;SDS011;19510;54.486;9.046;2024-03-23T13:17:26;10.48;;;2.33;;
16837;SDS011;19510;54.486;9.046;2024-03-23T13:19:53;15.88;;;2.03;;
16837;SDS011;19510;54.486;9.046;2024-03-23T13:22:19;7.93;;;1.83;;
16837;SDS011;19510;54.486;9.046;2024-03-23T13:24:44;8.85;;;2.22;;
16837;SDS011;19510;54.486;9.046;2024-03-23T13:27:12;9.32;;;1.80;;
16837;SDS011;19510;54.486;9.046;2024-03-23T13:29:38;11.60;;;1.83;;
16837;SDS011;19510;54.486;9.046;2024-03-23T13:32:04;17.52;;;2.28;;
16837;SDS011;19510;54.486;9.046;2024-03-23T13:34:30;9.50;;;1.65;;
16837;SDS011;19510;54.486;9.046;2024-03-23T13:36:58;10.63;;;1.85;;
16837;SDS011;19510;54.486;9.046;2024-03-23T13:39:24;6.72;;;1.75;;
16837;SDS011;19510;54.486;9.046;2024-03-23T13:41:53;8.13;;;1.83;;
16837;SDS011;19510;54.486;9.046;2024-03-23T13:44:20;17.10;;;1.83;;
16837;SDS011;19510;54.486;9.046;2024-03-23T13:46:46;9.60;;;2.13;;
16837;SDS011;19510;54.486;9.046;2024-03-23T13:49:25;12.65;;;1.98;;
16837;SDS011;19510;54.486;9.046;2024-03-23T13:51:52;9.32;;;1.90;;
16837;SDS011;19510;54.486;9.046;2024-03-23T13:54:18;11.13;;;2.03;;
16837;SDS011;19510;54.486;9.046;2024-03-23T13:56:44;8.50;;;1.90;;
16837;SDS011;19510;54.486;9.046;2024-03-23T13:59:10;11.95;;;1.60;;
16837;SDS011;19510;54.486;9.046;2024-03-23T14:01:35;8.05;;;1.65;;
16837;SDS011;19510;54.486;9.046;2024-03-23T14:04:01;8.52;;;1.60;;
16837;SDS011;19510;54.486;9.046;2024-03-23T14:06:27;9.70;;;1.75;;
16837;SDS011;19510;54.486;9.046;2024-03-23T14:08:55;11.43;;;1.80;;
16837;SDS011;19510;54.486;9.046;2024-03-23T14:11:21;9.88;;;2.15;;
16837;SDS011;19510;54.486;9.046;2024-03-23T14:13:51;10.68;;;2.10;;
16837;SDS011;19510;54.486;9.046;2024-03-23T14:16:18;7.50;;;1.80;;
16837;SDS011;19510;54.486;9.046;2024-03-23T14:18:46;5.70;;;1.98;;
16837;SDS011;19510;54.486;9.046;2024-03-23T14:21:14;5.07;;;1.08;;
16837;SDS011;19510;54.486;9.046;2024-03-23T14:23:40;7.88;;;0.90;;
16837;SDS011;19510;54.486;9.046;2024-03-23T14:26:06;6.70;;;1.60;;
16837;SDS011;19510;54.486;9.046;2024-03-23T14:28:31;9.88;;;1.67;;
16837;SDS011;19510;54.486;9.046;2024-03-23T14:31:02;6.18;;;1.67;;
16837;SDS011;19510;54.486;9.046;2024-03-23T14:33:36;4.65;;;1.25;;
16837;SDS011;19510;54.486;9.046;2024-03-23T14:36:03;10.15;;;1.67;;
16837;SDS011;19510;54.486;9.046;2024-03-23T14:38:29;12.73;;;1.92;;
16837;SDS011;19510;54.486;9.046;2024-03-23T14:40:58;11.88;;;1.92;;
16837;SDS011;19510;54.486;9.046;2024-03-23T14:43:28;9.73;;;2.08;;
16837;SDS011;19510;54.486;9.046;2024-03-23T14:46:09;7.35;;;2.10;;
16837;SDS011;19510;54.486;9.046;2024-03-23T14:48:36;9.18;;;2.47;;
16837;SDS011;19510;54.486;9.046;2024-03-23T14:51:02;13.60;;;2.60;;
16837;SDS011;19510;54.486;9.046;2024-03-23T14:53:34;10.20;;;2.05;;
16837;SDS011;19510;54.486;9.046;2024-03-23T14:56:05;11.27;;;2.05;;
16837;SDS011;19510;54.486;9.046;2024-03-23T14:58:31;7.07;;;1.65;;
16837;SDS011;19510;54.486;9.046;2024-03-23T15:01:06;15.45;;;2.47;;
16837;SDS011;19510;54.486;9.046;2024-03-23T15:03:38;12.52;;;2.42;;
16837;SDS011;19510;54.486;9.046;2024-03-23T15:06:05;15.70;;;2.45;;
16837;SDS011;19510;54.486;9.046;2024-03-23T15:08:36;9.85;;;1.73;;
16837;SDS011;19510;54.486;9.046;2024-03-23T15:11:10;4.55;;;1.52;;
16837;SDS011;19510;54.486;9.046;2024-03-23T15:13:36;7.05;;;1.73;;
16837;SDS011;19510;54.486;9.046;2024-03-23T15:16:02;10.57;;;2.15;;
16837;SDS011;19510;54.486;9.046;2024-03-23T15:18:29;5.97;;;1.70;;
16837;SDS011;19510;54.486;9.046;2024-03-23T15:20:55;8.20;;;1.48;;
16837;SDS011;19510;54.486;9.046;2024-03-23T15:23:30;16.25;;;2.50;;
16837;SDS011;19510;54.486;9.046;2024-03-23T15:28:28;19.05;;;2.83;;
16837;SDS011;19510;54.486;9.046;2024-03-23T15:31:09;11.95;;;2.00;;
16837;SDS011;19510;54.486;9.046;2024-03-23T15:33:35;12.25;;;2.15;;
16837;SDS011;19510;54.486;9.046;2024-03-23T15:36:06;9.23;;;2.17;;
16837;SDS011;19510;54.486;9.046;2024-03-23T15:38:32;13.63;;;2.47;;
16837;SDS011;19510;54.486;9.046;2024-03-23T15:40:58;9.88;;;1.92;;
16837;SDS011;19510;54.486;9.046;2024-03-23T15:43:26;10.27;;;1.90;;
16837;SDS011;19510;54.486;9.046;2024-03-23T15:45:56;12.77;;;2.42;;
16837;SDS011;19510;54.486;9.046;2024-03-23T15:48:24;7.25;;;1.63;;